createdAt,value
2023-06-13T00:00:27.625Z,50.50
2023-06-13T00:02:54.910Z,50.60
2023-06-13T00:05:22.344Z,50.50
2023-06-13T00:07:50.863Z,50.60
2023-06-13T00:10:17.758Z,50.60
2023-06-13T00:12:45.757Z,50.80
2023-06-13T00:15:16.738Z,51.10
2023-06-13T00:17:43.633Z,51.00
2023-06-13T00:20:10.981Z,51.10
2023-06-13T00:22:38.259Z,51.30
2023-06-13T00:25:05.468Z,51.60
2023-06-13T00:27:33.288Z,51.90
2023-06-13T00:30:00.106Z,51.90
2023-06-13T00:32:26.859Z,51.90
2023-06-13T00:34:53.541Z,52.10
2023-06-13T00:37:21.877Z,52.20
2023-06-13T00:39:48.656Z,52.40
2023-06-13T00:42:15.436Z,52.50
2023-06-13T00:44:42.117Z,53.00
2023-06-13T00:47:09.066Z,53.30
2023-06-13T00:49:35.989Z,53.10
2023-06-13T00:52:05.661Z,53.00
2023-06-13T00:54:37.669Z,53.40
2023-06-13T00:57:06.618Z,53.40
2023-06-13T00:59:33.814Z,53.50
2023-06-13T01:02:00.924Z,53.60
2023-06-13T01:04:28.693Z,53.80
2023-06-13T01:06:55.549Z,53.90
2023-06-13T01:09:23.182Z,54.00
2023-06-13T01:12:19.377Z,54.30
2023-06-13T01:14:56.671Z,54.60
2023-06-13T01:17:28.208Z,54.70
2023-06-13T01:19:59.733Z,54.80
2023-06-13T01:22:44.384Z,54.80
2023-06-13T01:25:46.544Z,55.30
2023-06-13T01:28:14.491Z,55.40
2023-06-13T01:30:42.701Z,55.40
2023-06-13T01:33:10.677Z,55.60
2023-06-13T01:35:38.620Z,55.50
2023-06-13T01:38:06.014Z,55.60
2023-06-13T01:40:32.836Z,55.70
2023-06-13T01:42:59.526Z,55.80
2023-06-13T01:45:26.889Z,56.10
2023-06-13T01:47:56.637Z,56.10
2023-06-13T01:50:51.899Z,56.00
2023-06-13T01:53:50.869Z,56.30
2023-06-13T01:56:20.504Z,56.70
2023-06-13T01:58:54.513Z,56.80
2023-06-13T02:01:22.120Z,56.90
2023-06-13T02:03:49.056Z,56.90
2023-06-13T02:06:16.454Z,56.90
2023-06-13T02:08:44.697Z,57.00
2023-06-13T02:11:11.595Z,57.30
2023-06-13T02:13:38.703Z,57.40
2023-06-13T02:16:05.913Z,57.40
2023-06-13T02:18:33.146Z,57.40
2023-06-13T02:20:59.909Z,57.50
2023-06-13T02:23:26.768Z,57.60
2023-06-13T02:25:53.538Z,57.70
2023-06-13T02:28:20.557Z,57.60
2023-06-13T02:30:48.042Z,57.50
2023-06-13T02:33:15.382Z,57.50
2023-06-13T02:35:43.424Z,57.40
2023-06-13T02:38:10.129Z,57.40
2023-06-13T02:40:40.046Z,57.60
2023-06-13T02:43:06.782Z,57.70
2023-06-13T02:45:33.621Z,58.00
2023-06-13T02:48:01.160Z,58.30
2023-06-13T02:50:27.968Z,58.10
2023-06-13T02:52:54.884Z,58.10
2023-06-13T02:55:21.791Z,58.00
2023-06-13T02:57:48.647Z,58.10
2023-06-13T03:00:18.739Z,57.90
2023-06-13T03:02:45.557Z,58.00
2023-06-13T03:05:17.020Z,58.40
2023-06-13T03:07:47.379Z,58.40
2023-06-13T03:10:16.930Z,58.30
2023-06-13T03:12:44.005Z,58.20
2023-06-13T03:15:12.867Z,58.40
2023-06-13T03:17:40.388Z,58.50
2023-06-13T03:20:07.651Z,58.60
2023-06-13T03:22:34.469Z,58.30
2023-06-13T03:25:04.077Z,58.50
2023-06-13T03:27:31.241Z,58.40
2023-06-13T03:29:57.909Z,58.30
2023-06-13T03:32:24.657Z,58.40
2023-06-13T03:34:53.849Z,58.30
2023-06-13T03:37:21.163Z,58.20
2023-06-13T03:39:48.050Z,58.20
2023-06-13T03:42:14.771Z,58.30
2023-06-13T03:44:47.697Z,58.20
2023-06-13T03:47:15.181Z,58.00
2023-06-13T03:49:42.260Z,57.80
2023-06-13T03:52:09.165Z,58.00
2023-06-13T03:54:35.917Z,58.00
2023-06-13T03:57:03.430Z,58.00
2023-06-13T03:59:30.188Z,58.10
2023-06-13T04:01:56.869Z,58.20
2023-06-13T04:04:23.615Z,58.20
2023-06-13T04:06:50.324Z,58.20
2023-06-13T04:09:17.028Z,58.20
2023-06-13T04:11:43.754Z,58.10
2023-06-13T04:14:10.474Z,58.00
2023-06-13T04:16:37.217Z,57.60
2023-06-13T04:19:04.088Z,57.50
2023-06-13T04:21:31.234Z,57.60
2023-06-13T04:23:58.075Z,57.80
2023-06-13T04:26:25.102Z,57.50
2023-06-13T04:28:51.982Z,57.20
2023-06-13T04:31:20.259Z,57.20
2023-06-13T04:33:47.887Z,57.30
2023-06-13T04:36:15.104Z,56.90
2023-06-13T04:38:45.106Z,57.20
2023-06-13T04:41:12.121Z,56.70
2023-06-13T04:43:40.138Z,56.60
2023-06-13T04:46:09.875Z,56.20
2023-06-13T04:48:37.476Z,55.90
2023-06-13T04:51:05.277Z,56.10
2023-06-13T04:53:33.853Z,56.30
2023-06-13T04:56:00.749Z,56.20
2023-06-13T04:58:27.671Z,56.10
2023-06-13T05:00:55.735Z,55.90
2023-06-13T05:03:22.876Z,55.80
2023-06-13T05:05:51.214Z,55.80
2023-06-13T05:08:22.577Z,55.00
2023-06-13T05:10:49.281Z,54.70
2023-06-13T05:13:16.010Z,54.80
2023-06-13T05:15:48.850Z,54.90
2023-06-13T05:18:15.869Z,54.70
2023-06-13T05:20:44.184Z,54.30
2023-06-13T05:23:11.918Z,54.50
2023-06-13T05:25:38.689Z,54.10
2023-06-13T05:28:05.629Z,53.80
2023-06-13T05:30:32.351Z,53.90
2023-06-13T05:32:59.216Z,52.50
2023-06-13T05:35:25.978Z,52.90
2023-06-13T05:37:52.807Z,52.90
2023-06-13T05:40:20.038Z,53.00
2023-06-13T05:42:47.288Z,52.40
2023-06-13T05:45:14.131Z,51.90
2023-06-13T05:47:40.866Z,51.30
2023-06-13T05:50:07.874Z,51.80
2023-06-13T05:52:35.043Z,51.50
2023-06-13T05:55:02.809Z,50.90
2023-06-13T05:57:40.369Z,49.70
2023-06-13T06:00:16.483Z,50.20
2023-06-13T06:02:48.286Z,50.00
2023-06-13T06:05:15.763Z,49.50
2023-06-13T06:07:43.874Z,49.40
2023-06-13T06:10:12.589Z,48.60
2023-06-13T06:12:40.330Z,48.40
2023-06-13T06:15:07.580Z,48.10
2023-06-13T06:17:34.470Z,48.10
2023-06-13T06:20:01.551Z,47.90
2023-06-13T06:22:28.419Z,47.80
2023-06-13T06:24:55.124Z,47.60
2023-06-13T06:27:21.909Z,47.10
2023-06-13T06:29:48.645Z,46.80
2023-06-13T06:32:15.502Z,47.10
2023-06-13T06:34:42.286Z,46.80
2023-06-13T06:37:10.693Z,46.30
2023-06-13T06:39:39.752Z,46.40
2023-06-13T06:42:06.713Z,46.20
2023-06-13T06:44:44.366Z,45.70
2023-06-13T06:47:12.183Z,44.70
2023-06-13T06:49:39.017Z,45.20
2023-06-13T06:52:06.181Z,45.50
2023-06-13T06:54:33.175Z,45.10
2023-06-13T06:57:00.135Z,44.20
2023-06-13T06:59:26.914Z,44.50
2023-06-13T07:01:53.714Z,44.10
2023-06-13T07:04:20.588Z,44.30
2023-06-13T07:06:47.482Z,43.70
2023-06-13T07:09:14.582Z,44.30
2023-06-13T07:11:41.447Z,44.70
2023-06-13T07:14:08.663Z,43.60
2023-06-13T07:16:35.496Z,43.60
2023-06-13T07:19:02.313Z,42.60
2023-06-13T07:21:30.300Z,43.00
2023-06-13T07:24:05.909Z,42.70
2023-06-13T07:26:33.282Z,42.50
2023-06-13T07:28:59.951Z,42.00
2023-06-13T07:31:27.302Z,41.50
2023-06-13T07:33:54.108Z,41.90
2023-06-13T07:36:20.807Z,41.80
2023-06-13T07:38:47.515Z,41.00
2023-06-13T07:41:14.429Z,41.20
2023-06-13T07:43:41.552Z,41.70
2023-06-13T07:46:08.350Z,41.10
2023-06-13T07:48:35.191Z,40.70
2023-06-13T07:51:03.384Z,41.40
2023-06-13T07:53:30.105Z,40.80
2023-06-13T07:55:57.132Z,41.40
2023-06-13T07:58:24.001Z,40.80
2023-06-13T08:00:51.441Z,40.20
2023-06-13T08:03:18.393Z,40.00
2023-06-13T08:05:45.258Z,40.30
2023-06-13T08:08:11.997Z,40.80
2023-06-13T08:10:38.741Z,40.50
2023-06-13T08:13:05.610Z,39.50
2023-06-13T08:15:32.405Z,38.90
2023-06-13T08:17:59.548Z,39.60
2023-06-13T08:20:26.291Z,40.00
2023-06-13T08:22:53.017Z,39.30
2023-06-13T08:25:19.828Z,39.30
2023-06-13T08:27:47.392Z,39.50
2023-06-13T08:30:15.208Z,39.70
2023-06-13T08:32:42.749Z,39.20
2023-06-13T08:35:10.108Z,39.20
2023-06-13T08:37:37.072Z,38.60
2023-06-13T08:40:06.685Z,37.70
2023-06-13T08:42:33.794Z,37.30
2023-06-13T08:45:01.844Z,38.20
2023-06-13T08:50:01.311Z,36.90
2023-06-13T08:52:31.988Z,37.00
2023-06-13T08:55:10.700Z,36.80
2023-06-13T08:57:46.944Z,36.90
2023-06-13T09:00:16.660Z,36.60
2023-06-13T09:02:46.511Z,36.30
2023-06-13T09:05:16.476Z,36.60
2023-06-13T09:07:44.523Z,37.00
2023-06-13T09:10:12.725Z,36.50
2023-06-13T09:12:44.831Z,36.50
2023-06-13T09:15:12.477Z,37.60
2023-06-13T09:17:39.961Z,36.20
2023-06-13T09:20:09.221Z,36.90
2023-06-13T09:22:37.257Z,37.20
2023-06-13T09:25:05.901Z,37.50
2023-06-13T09:27:33.114Z,36.80
2023-06-13T09:30:02.014Z,36.80
2023-06-13T09:32:28.978Z,36.60
2023-06-13T09:34:56.362Z,36.10
2023-06-13T09:37:26.446Z,36.70
2023-06-13T09:42:46.914Z,35.60
2023-06-13T09:45:17.245Z,36.30
2023-06-13T09:47:44.600Z,35.80
2023-06-13T09:50:11.638Z,34.80
2023-06-13T09:52:38.444Z,34.80
2023-06-13T09:55:05.812Z,35.00
2023-06-13T09:57:47.944Z,34.80
2023-06-13T10:00:21.438Z,35.30
2023-06-13T10:02:48.266Z,35.20
2023-06-13T10:05:15.188Z,34.40
2023-06-13T10:07:42.009Z,35.00
2023-06-13T10:10:09.082Z,35.20
2023-06-13T10:12:41.144Z,34.00
2023-06-13T10:15:08.728Z,33.70
2023-06-13T10:17:43.482Z,34.90
2023-06-13T10:20:12.692Z,34.20
2023-06-13T10:22:40.612Z,35.00
2023-06-13T10:25:09.771Z,34.80
2023-06-13T10:27:46.877Z,36.30
2023-06-13T10:30:32.727Z,36.20
2023-06-13T10:33:18.069Z,36.50
2023-06-13T10:36:04.068Z,35.70
2023-06-13T10:38:49.632Z,35.90
2023-06-13T10:41:47.106Z,35.30
2023-06-13T10:44:34.234Z,34.70
2023-06-13T10:47:02.756Z,35.00
2023-06-13T10:49:38.668Z,34.80
2023-06-13T10:52:10.957Z,34.60
2023-06-13T10:54:37.839Z,34.40
2023-06-13T10:57:06.296Z,35.10
2023-06-13T10:59:37.905Z,34.10
2023-06-13T11:02:06.123Z,33.50
2023-06-13T11:04:33.527Z,33.50
2023-06-13T11:07:22.122Z,33.80
2023-06-13T11:10:05.147Z,33.40
2023-06-13T11:12:32.954Z,33.80
2023-06-13T11:15:01.467Z,33.90
2023-06-13T11:17:29.145Z,33.20
2023-06-13T11:19:57.272Z,33.10
2023-06-13T11:22:24.430Z,33.70
2023-06-13T11:24:53.987Z,33.60
2023-06-13T11:27:20.845Z,33.70
2023-06-13T11:29:49.082Z,32.80
2023-06-13T11:32:17.118Z,32.70
2023-06-13T11:34:49.401Z,32.70
2023-06-13T11:37:25.109Z,32.50
2023-06-13T11:40:17.729Z,32.70
2023-06-13T11:42:44.129Z,32.80
2023-06-13T11:45:11.037Z,32.20
2023-06-13T11:47:37.909Z,32.70
2023-06-13T11:50:05.295Z,32.50
2023-06-13T11:52:32.454Z,32.20
2023-06-13T11:55:00.836Z,31.80
2023-06-13T11:57:46.169Z,31.10
2023-06-13T12:00:13.954Z,31.40
2023-06-13T12:02:41.412Z,32.00
2023-06-13T12:05:11.680Z,31.90
2023-06-13T12:07:38.470Z,32.10
2023-06-13T12:10:05.497Z,32.60
2023-06-13T12:12:32.293Z,32.20
2023-06-13T12:14:59.098Z,33.10
2023-06-13T12:17:27.742Z,33.50
2023-06-13T12:20:10.374Z,31.70
2023-06-13T12:22:37.372Z,32.50
2023-06-13T12:25:05.889Z,31.70
2023-06-13T12:27:33.943Z,32.10
2023-06-13T12:30:14.689Z,32.00
2023-06-13T12:32:44.879Z,31.40
2023-06-13T12:35:12.477Z,30.20
2023-06-13T12:37:41.952Z,30.30
2023-06-13T12:40:13.733Z,31.30
2023-06-13T12:42:43.872Z,31.10
2023-06-13T12:45:15.388Z,31.60
2023-06-13T12:47:42.726Z,31.30
2023-06-13T12:50:11.336Z,31.90
2023-06-13T12:52:39.428Z,32.30
2023-06-13T12:55:06.556Z,33.10
2023-06-13T12:57:34.118Z,32.50
2023-06-13T13:00:01.520Z,31.80
2023-06-13T13:02:28.502Z,31.40
2023-06-13T13:05:05.107Z,32.00
2023-06-13T13:07:32.481Z,31.30
2023-06-13T13:10:03.125Z,30.60
2023-06-13T13:12:29.945Z,30.90
2023-06-13T13:14:57.887Z,31.60
2023-06-13T13:17:25.709Z,31.00
2023-06-13T13:19:54.405Z,30.80
2023-06-13T13:22:22.502Z,30.60
2023-06-13T13:24:49.265Z,30.30
2023-06-13T13:27:16.378Z,31.10
2023-06-13T13:29:43.114Z,31.10
2023-06-13T13:32:11.119Z,30.60
2023-06-13T13:34:38.142Z,29.80
2023-06-13T13:37:05.143Z,29.80
2023-06-13T13:39:31.824Z,30.50
2023-06-13T13:42:00.573Z,30.50
2023-06-13T13:44:29.260Z,30.10
2023-06-13T13:46:56.050Z,29.90
2023-06-13T13:49:22.897Z,30.60
2023-06-13T13:51:49.993Z,31.20
2023-06-13T13:54:17.016Z,31.90
2023-06-13T13:56:45.002Z,30.00
2023-06-13T13:59:12.120Z,29.70
2023-06-13T14:01:38.934Z,30.80
2023-06-13T14:04:05.933Z,30.60
2023-06-13T14:06:32.657Z,28.90
2023-06-13T14:09:02.344Z,28.90
2023-06-13T14:11:29.621Z,29.00
2023-06-13T14:13:58.735Z,29.10
2023-06-13T14:16:25.614Z,29.60
2023-06-13T14:18:52.533Z,30.00
2023-06-13T14:21:19.262Z,30.60
2023-06-13T14:23:46.986Z,30.40
2023-06-13T14:26:13.829Z,30.10
2023-06-13T14:28:42.460Z,30.40
2023-06-13T14:31:10.251Z,30.00
2023-06-13T14:33:39.331Z,29.20
2023-06-13T14:36:06.397Z,30.00
2023-06-13T14:38:38.612Z,30.00
2023-06-13T14:41:08.550Z,29.80
2023-06-13T14:43:35.794Z,29.50
2023-06-13T14:46:05.397Z,29.40
2023-06-13T14:48:32.812Z,29.60
2023-06-13T14:51:02.765Z,30.10
2023-06-13T14:53:31.471Z,28.90
2023-06-13T14:55:58.992Z,28.70
2023-06-13T14:58:25.986Z,28.60
2023-06-13T15:00:52.720Z,29.10
2023-06-13T15:03:19.376Z,29.40
2023-06-13T15:05:46.138Z,29.20
2023-06-13T15:08:12.957Z,29.50
2023-06-13T15:10:39.862Z,29.50
2023-06-13T15:13:06.594Z,29.40
2023-06-13T15:15:35.337Z,29.20
2023-06-13T15:18:02.247Z,29.60
2023-06-13T15:20:31.260Z,29.30
2023-06-13T15:22:58.087Z,29.20
2023-06-13T15:25:24.940Z,29.30
2023-06-13T15:27:51.673Z,29.40
2023-06-13T15:30:18.621Z,29.10
2023-06-13T15:32:45.783Z,29.20
2023-06-13T15:35:12.598Z,29.40
2023-06-13T15:37:40.205Z,29.60
2023-06-13T15:40:07.614Z,30.20
2023-06-13T15:42:34.398Z,30.00
2023-06-13T15:45:01.181Z,29.40
2023-06-13T15:47:28.030Z,29.90
2023-06-13T15:49:54.851Z,29.10
2023-06-13T15:52:21.661Z,28.60
2023-06-13T15:54:48.778Z,28.80
2023-06-13T15:57:15.568Z,28.70
2023-06-13T15:59:42.488Z,28.10
2023-06-13T16:02:09.337Z,27.20
2023-06-13T16:04:36.012Z,26.00
2023-06-13T16:07:02.855Z,26.10
2023-06-13T16:09:30.408Z,26.90
2023-06-13T16:11:57.184Z,26.90
2023-06-13T16:14:24.037Z,27.20
2023-06-13T16:16:50.802Z,27.60
2023-06-13T16:19:17.588Z,27.80
2023-06-13T16:21:44.358Z,28.00
2023-06-13T16:24:11.498Z,28.10
2023-06-13T16:26:38.744Z,28.60
2023-06-13T16:29:05.565Z,28.70
2023-06-13T16:31:32.348Z,28.80
2023-06-13T16:33:59.200Z,29.40
2023-06-13T16:36:25.944Z,29.10
2023-06-13T16:38:55.650Z,28.90
2023-06-13T16:41:23.721Z,28.90
2023-06-13T16:43:50.479Z,29.00
2023-06-13T16:46:18.755Z,29.20
2023-06-13T16:48:45.558Z,28.30
2023-06-13T16:51:12.301Z,28.60
2023-06-13T16:53:39.168Z,28.80
2023-06-13T16:56:06.259Z,28.90
2023-06-13T16:58:33.047Z,29.00
2023-06-13T17:00:59.773Z,29.10
2023-06-13T17:03:27.057Z,29.70
2023-06-13T17:05:53.979Z,29.60
2023-06-13T17:08:20.997Z,29.80
2023-06-13T17:10:47.924Z,30.00
2023-06-13T17:13:14.701Z,30.00
2023-06-13T17:15:43.681Z,29.90
2023-06-13T17:18:10.502Z,29.10
2023-06-13T17:20:37.211Z,29.00
2023-06-13T17:23:04.077Z,29.20
2023-06-13T17:25:31.000Z,29.40
2023-06-13T17:27:57.844Z,29.40
2023-06-13T17:30:24.670Z,29.80
2023-06-13T17:32:51.772Z,29.70
2023-06-13T17:35:19.171Z,29.80
2023-06-13T17:37:46.307Z,29.60
2023-06-13T17:40:13.103Z,29.30
2023-06-13T17:42:40.360Z,29.50
2023-06-13T17:45:08.010Z,29.40
2023-06-13T17:47:36.045Z,29.20
2023-06-13T17:50:03.348Z,29.60
2023-06-13T17:52:30.136Z,29.40
2023-06-13T17:54:56.867Z,29.20
2023-06-13T17:57:25.068Z,29.10
2023-06-13T17:59:51.911Z,29.30
2023-06-13T18:02:18.749Z,29.30
2023-06-13T18:04:45.682Z,29.50
2023-06-13T18:07:13.038Z,29.50
2023-06-13T18:09:39.788Z,29.80
2023-06-13T18:12:20.042Z,29.90
2023-06-13T18:14:48.781Z,30.00
2023-06-13T18:17:16.565Z,30.20
2023-06-13T18:19:43.400Z,30.30
2023-06-13T18:22:10.296Z,30.90
2023-06-13T18:24:37.364Z,30.30
2023-06-13T18:27:04.438Z,30.40
2023-06-13T18:29:31.298Z,30.60
2023-06-13T18:31:58.075Z,30.80
2023-06-13T18:34:24.815Z,31.00
2023-06-13T18:36:51.673Z,31.60
2023-06-13T18:39:18.488Z,32.10
2023-06-13T18:41:45.284Z,32.10
2023-06-13T18:44:14.122Z,32.30
2023-06-13T18:46:40.975Z,32.30
2023-06-13T18:49:08.135Z,32.50
2023-06-13T18:51:35.055Z,33.30
2023-06-13T18:54:01.957Z,34.00
2023-06-13T18:56:29.082Z,34.60
2023-06-13T18:58:57.992Z,34.90
2023-06-13T19:01:25.878Z,35.40
2023-06-13T19:03:54.411Z,35.20
2023-06-13T19:06:21.358Z,34.90
2023-06-13T19:08:49.612Z,34.80
2023-06-13T19:11:16.415Z,35.50
2023-06-13T19:13:43.401Z,35.70
2023-06-13T19:16:11.510Z,35.50
2023-06-13T19:18:38.642Z,35.60
2023-06-13T19:21:06.441Z,35.00
2023-06-13T19:23:33.287Z,35.10
2023-06-13T19:26:00.495Z,35.20
2023-06-13T19:28:27.350Z,35.30
2023-06-13T19:30:54.182Z,35.00
2023-06-13T19:33:21.651Z,35.10
2023-06-13T19:35:48.616Z,35.30
2023-06-13T19:38:19.033Z,35.30
2023-06-13T19:40:45.869Z,35.40
2023-06-13T19:43:12.968Z,35.50
2023-06-13T19:45:39.691Z,35.40
2023-06-13T19:48:09.114Z,35.40
2023-06-13T19:50:36.136Z,35.30
2023-06-13T19:53:04.503Z,35.30
2023-06-13T19:55:33.024Z,35.30
2023-06-13T19:57:59.911Z,35.40
2023-06-13T20:00:29.161Z,34.70
2023-06-13T20:02:57.666Z,35.00
2023-06-13T20:05:25.533Z,35.00
2023-06-13T20:07:52.674Z,35.10
2023-06-13T20:10:19.441Z,35.00
2023-06-13T20:12:46.202Z,35.10
2023-06-13T20:15:13.255Z,35.30
2023-06-13T20:17:40.291Z,35.10
2023-06-13T20:20:13.698Z,35.10
2023-06-13T20:22:42.749Z,35.20
2023-06-13T20:25:10.526Z,35.20
2023-06-13T20:27:38.241Z,35.30
2023-06-13T20:30:09.666Z,35.20
2023-06-13T20:32:37.306Z,35.50
2023-06-13T20:35:04.644Z,35.70
2023-06-13T20:37:31.572Z,35.90
2023-06-13T20:40:05.362Z,35.90
2023-06-13T20:42:32.994Z,36.20
2023-06-13T20:45:09.237Z,36.40
2023-06-13T20:47:37.874Z,36.50
2023-06-13T20:50:11.427Z,37.00
2023-06-13T20:52:38.772Z,36.80
2023-06-13T20:55:07.280Z,36.80
2023-06-13T20:57:36.941Z,37.10
2023-06-13T21:00:21.403Z,37.30
2023-06-13T21:02:53.451Z,37.50
2023-06-13T21:05:21.891Z,37.40
2023-06-13T21:07:49.084Z,37.00
2023-06-13T21:10:19.708Z,37.90
2023-06-13T21:12:47.563Z,37.70
2023-06-13T21:15:20.112Z,37.80
2023-06-13T21:17:48.855Z,37.80
2023-06-13T21:20:16.977Z,38.10
2023-06-13T21:22:45.650Z,38.60
2023-06-13T21:25:14.626Z,38.00
2023-06-13T21:27:42.067Z,37.90
2023-06-13T21:30:15.312Z,38.10
2023-06-13T21:32:44.229Z,38.80
2023-06-13T21:35:11.961Z,39.80
2023-06-13T21:37:39.076Z,39.90
2023-06-13T21:40:08.011Z,40.00
2023-06-13T21:42:36.392Z,40.90
2023-06-13T21:45:05.118Z,41.50
2023-06-13T21:47:34.523Z,41.70
2023-06-13T21:50:06.004Z,41.90
2023-06-13T21:52:32.958Z,42.30
2023-06-13T21:54:59.814Z,42.20
2023-06-13T21:57:26.569Z,42.50
2023-06-13T21:59:53.356Z,42.70
2023-06-13T22:02:20.403Z,42.90
2023-06-13T22:04:47.301Z,42.70
2023-06-13T22:07:15.694Z,42.90
2023-06-13T22:09:42.455Z,43.30
2023-06-13T22:12:10.795Z,43.30
2023-06-13T22:14:37.534Z,43.60
2023-06-13T22:17:05.367Z,44.00
2023-06-13T22:19:33.356Z,44.10
2023-06-13T22:22:00.810Z,43.90
2023-06-13T22:24:28.050Z,43.90
2023-06-13T22:26:55.202Z,44.10
2023-06-13T22:29:22.792Z,44.10
2023-06-13T22:31:50.176Z,44.10
2023-06-13T22:34:17.070Z,44.30
2023-06-13T22:36:43.764Z,43.80
2023-06-13T22:39:10.496Z,43.20
2023-06-13T22:41:37.258Z,42.60
2023-06-13T22:44:05.080Z,43.00
2023-06-13T22:46:31.940Z,42.90
2023-06-13T22:49:00.821Z,43.30
2023-06-13T22:51:28.022Z,43.60
2023-06-13T22:53:54.916Z,44.00
2023-06-13T22:56:21.829Z,44.00
2023-06-13T22:58:48.529Z,44.20
2023-06-13T23:01:15.281Z,44.40
2023-06-13T23:03:42.126Z,43.80
2023-06-13T23:06:08.918Z,43.20
2023-06-13T23:08:35.675Z,42.50
2023-06-13T23:11:02.478Z,42.50
2023-06-13T23:13:29.977Z,43.10
2023-06-13T23:15:59.302Z,44.10
2023-06-13T23:18:29.077Z,44.20
2023-06-13T23:20:55.751Z,43.60
2023-06-13T23:23:22.542Z,43.30
2023-06-13T23:25:50.256Z,43.60
2023-06-13T23:28:17.796Z,44.00
2023-06-13T23:30:45.513Z,45.10
2023-06-13T23:33:12.814Z,45.30
2023-06-13T23:35:39.839Z,44.90
2023-06-13T23:38:07.135Z,44.90
2023-06-13T23:40:33.889Z,45.20
2023-06-13T23:43:06.155Z,46.30
2023-06-13T23:45:33.289Z,46.50
2023-06-13T23:47:59.989Z,47.10
2023-06-13T23:50:27.915Z,46.40
2023-06-13T23:52:54.706Z,46.40
2023-06-13T23:55:21.536Z,46.60
2023-06-13T23:57:48.283Z,46.90
